sensor_id;sensor_type;location;lat;lon;timestamp;pressure;altitude;pressure_sealevel;temperature;humidity
61014;BME280;46899;47.542;19.082;2023-07-31T00:02:32;100105.19;;;18.65;100.00
61014;BME280;46899;47.542;19.082;2023-07-31T00:05:35;100106.56;;;18.58;100.00
61014;BME280;46899;47.542;19.082;2023-07-31T00:08:37;100104.31;;;18.65;100.00
61014;BME280;46899;47.542;19.082;2023-07-31T00:11:40;100097.28;;;18.53;100.00
61014;BME280;46899;47.542;19.082;2023-07-31T00:14:42;100108.75;;;18.64;100.00
61014;BME280;46899;47.542;19.082;2023-07-31T00:17:45;100100.31;;;18.59;100.00
61014;BME280;46899;47.542;19.082;2023-07-31T00:20:47;100094.03;;;18.49;100.00
61014;BME280;46899;47.542;19.082;2023-07-31T00:23:50;100099.09;;;18.52;100.00
61014;BME280;46899;47.542;19.082;2023-07-31T00:26:52;100104.47;;;18.51;100.00
61014;BME280;46899;47.542;19.082;2023-07-31T00:29:55;100113.31;;;18.50;100.00
61014;BME280;46899;47.542;19.082;2023-07-31T00:32:57;100113.09;;;18.53;100.00
61014;BME280;46899;47.542;19.082;2023-07-31T00:36:00;100102.34;;;18.56;100.00
61014;BME280;46899;47.542;19.082;2023-07-31T00:39:02;100103.16;;;18.56;100.00
61014;BME280;46899;47.542;19.082;2023-07-31T00:42:07;100116.25;;;18.58;100.00
61014;BME280;46899;47.542;19.082;2023-07-31T00:45:09;100119.63;;;18.60;100.00
61014;BME280;46899;47.542;19.082;2023-07-31T00:48:12;100116.53;;;18.66;100.00
61014;BME280;46899;47.542;19.082;2023-07-31T00:51:14;100119.50;;;18.61;100.00
61014;BME280;46899;47.542;19.082;2023-07-31T00:54:17;100122.88;;;18.63;100.00
61014;BME280;46899;47.542;19.082;2023-07-31T00:57:20;100127.94;;;18.54;100.00
61014;BME280;46899;47.542;19.082;2023-07-31T01:00:22;100126.62;;;18.48;100.00
61014;BME280;46899;47.542;19.082;2023-07-31T01:03:25;100124.16;;;18.45;100.00
61014;BME280;46899;47.542;19.082;2023-07-31T01:06:40;100127.75;;;18.44;100.00
61014;BME280;46899;47.542;19.082;2023-07-31T01:09:49;100132.50;;;18.39;100.00
61014;BME280;46899;47.542;19.082;2023-07-31T01:12:55;100124.06;;;18.34;100.00
61014;BME280;46899;47.542;19.082;2023-07-31T01:15:58;100120.00;;;18.30;100.00
61014;BME280;46899;47.542;19.082;2023-07-31T01:19:01;100118.63;;;18.24;100.00
61014;BME280;46899;47.542;19.082;2023-07-31T01:22:26;100124.41;;;18.17;100.00
61014;BME280;46899;47.542;19.082;2023-07-31T01:31:53;100128.31;;;17.99;100.00
61014;BME280;46899;47.542;19.082;2023-07-31T01:34:57;100142.13;;;18.15;100.00
61014;BME280;46899;47.542;19.082;2023-07-31T01:38:00;100144.63;;;18.16;100.00
61014;BME280;46899;47.542;19.082;2023-07-31T01:41:03;100138.94;;;18.10;100.00
61014;BME280;46899;47.542;19.082;2023-07-31T01:44:05;100136.19;;;18.11;100.00
61014;BME280;46899;47.542;19.082;2023-07-31T01:47:09;100124.00;;;18.10;100.00
61014;BME280;46899;47.542;19.082;2023-07-31T01:50:11;100134.94;;;18.04;100.00
61014;BME280;46899;47.542;19.082;2023-07-31T01:53:13;100136.97;;;18.01;100.00
61014;BME280;46899;47.542;19.082;2023-07-31T01:56:18;100130.31;;;17.95;100.00
61014;BME280;46899;47.542;19.082;2023-07-31T01:59:20;100125.69;;;17.99;100.00
61014;BME280;46899;47.542;19.082;2023-07-31T02:02:22;100113.16;;;17.90;100.00
61014;BME280;46899;47.542;19.082;2023-07-31T02:05:26;100111.47;;;17.89;100.00
61014;BME280;46899;47.542;19.082;2023-07-31T02:08:28;100106.41;;;17.86;100.00
61014;BME280;46899;47.542;19.082;2023-07-31T02:11:31;100105.78;;;17.82;100.00
61014;BME280;46899;47.542;19.082;2023-07-31T02:14:34;100111.91;;;17.83;100.00
61014;BME280;46899;47.542;19.082;2023-07-31T02:17:36;100110.75;;;17.87;100.00
61014;BME280;46899;47.542;19.082;2023-07-31T02:20:39;100114.53;;;17.83;100.00
61014;BME280;46899;47.542;19.082;2023-07-31T02:23:42;100109.47;;;17.92;100.00
61014;BME280;46899;47.542;19.082;2023-07-31T02:26:44;100122.84;;;17.89;100.00
61014;BME280;46899;47.542;19.082;2023-07-31T02:29:47;100120.00;;;17.80;100.00
61014;BME280;46899;47.542;19.082;2023-07-31T02:32:49;100118.63;;;17.74;100.00
61014;BME280;46899;47.542;19.082;2023-07-31T02:35:52;100125.97;;;17.69;100.00
61014;BME280;46899;47.542;19.082;2023-07-31T02:38:56;100122.53;;;17.68;100.00
61014;BME280;46899;47.542;19.082;2023-07-31T02:42:00;100127.56;;;17.71;100.00
61014;BME280;46899;47.542;19.082;2023-07-31T02:45:02;100136.63;;;17.67;100.00
61014;BME280;46899;47.542;19.082;2023-07-31T02:48:05;100121.47;;;17.71;100.00
61014;BME280;46899;47.542;19.082;2023-07-31T02:51:07;100122.28;;;17.71;100.00
61014;BME280;46899;47.542;19.082;2023-07-31T02:54:10;100119.78;;;17.70;100.00
61014;BME280;46899;47.542;19.082;2023-07-31T02:57:15;100121.69;;;17.68;100.00
61014;BME280;46899;47.542;19.082;2023-07-31T03:00:18;100139.78;;;17.72;100.00
61014;BME280;46899;47.542;19.082;2023-07-31T03:03:21;100138.75;;;17.75;100.00
61014;BME280;46899;47.542;19.082;2023-07-31T03:06:24;100150.94;;;17.76;100.00
61014;BME280;46899;47.542;19.082;2023-07-31T03:09:26;100133.34;;;17.76;100.00
61014;BME280;46899;47.542;19.082;2023-07-31T03:12:29;100143.28;;;17.73;100.00
61014;BME280;46899;47.542;19.082;2023-07-31T03:15:31;100146.09;;;17.70;100.00
61014;BME280;46899;47.542;19.082;2023-07-31T03:18:34;100146.94;;;17.70;100.00
61014;BME280;46899;47.542;19.082;2023-07-31T03:21:36;100157.47;;;17.70;100.00
61014;BME280;46899;47.542;19.082;2023-07-31T03:24:39;100155.03;;;17.67;100.00
61014;BME280;46899;47.542;19.082;2023-07-31T03:27:41;100154.19;;;17.67;100.00
61014;BME280;46899;47.542;19.082;2023-07-31T03:30:44;100150.94;;;17.63;100.00
61014;BME280;46899;47.542;19.082;2023-07-31T03:33:47;100151.97;;;17.61;100.00
61014;BME280;46899;47.542;19.082;2023-07-31T03:36:50;100159.56;;;17.65;100.00
61014;BME280;46899;47.542;19.082;2023-07-31T03:39:52;100157.06;;;17.64;100.00
61014;BME280;46899;47.542;19.082;2023-07-31T03:42:55;100159.69;;;17.64;100.00
61014;BME280;46899;47.542;19.082;2023-07-31T03:45:57;100157.47;;;17.70;100.00
61014;BME280;46899;47.542;19.082;2023-07-31T03:49:00;100154.72;;;17.72;100.00
61014;BME280;46899;47.542;19.082;2023-07-31T03:52:02;100164.41;;;17.71;100.00
61014;BME280;46899;47.542;19.082;2023-07-31T03:55:05;100169.28;;;17.77;100.00
61014;BME280;46899;47.542;19.082;2023-07-31T03:58:07;100165.69;;;17.78;100.00
61014;BME280;46899;47.542;19.082;2023-07-31T04:01:10;100170.31;;;17.88;100.00
61014;BME280;46899;47.542;19.082;2023-07-31T04:04:12;100159.19;;;17.97;100.00
61014;BME280;46899;47.542;19.082;2023-07-31T04:07:15;100173.81;;;18.01;100.00
61014;BME280;46899;47.542;19.082;2023-07-31T04:10:17;100166.13;;;18.10;100.00
61014;BME280;46899;47.542;19.082;2023-07-31T04:13:21;100175.63;;;18.13;100.00
61014;BME280;46899;47.542;19.082;2023-07-31T04:16:24;100174.97;;;18.22;100.00
61014;BME280;46899;47.542;19.082;2023-07-31T04:19:26;100176.25;;;18.29;100.00
61014;BME280;46899;47.542;19.082;2023-07-31T04:22:29;100172.22;;;18.36;100.00
61014;BME280;46899;47.542;19.082;2023-07-31T04:25:31;100175.38;;;18.28;100.00
61014;BME280;46899;47.542;19.082;2023-07-31T04:28:34;100183.41;;;18.27;100.00
61014;BME280;46899;47.542;19.082;2023-07-31T04:31:37;100180.78;;;18.27;100.00
61014;BME280;46899;47.542;19.082;2023-07-31T04:34:41;100182.56;;;18.26;100.00
61014;BME280;46899;47.542;19.082;2023-07-31T04:37:43;100175.31;;;18.30;100.00
61014;BME280;46899;47.542;19.082;2023-07-31T04:40:48;100174.34;;;18.31;100.00
61014;BME280;46899;47.542;19.082;2023-07-31T04:43:51;100182.56;;;18.39;100.00
61014;BME280;46899;47.542;19.082;2023-07-31T04:46:54;100173.06;;;18.49;100.00
61014;BME280;46899;47.542;19.082;2023-07-31T04:49:56;100181.50;;;18.54;100.00
61014;BME280;46899;47.542;19.082;2023-07-31T04:52:59;100182.87;;;18.60;100.00
61014;BME280;46899;47.542;19.082;2023-07-31T04:56:01;100189.09;;;18.59;100.00
61014;BME280;46899;47.542;19.082;2023-07-31T04:59:04;100191.62;;;18.60;100.00
61014;BME280;46899;47.542;19.082;2023-07-31T05:02:11;100193.09;;;18.52;100.00
61014;BME280;46899;47.542;19.082;2023-07-31T05:05:14;100194.81;;;18.53;100.00
61014;BME280;46899;47.542;19.082;2023-07-31T05:08:17;100192.16;;;18.53;100.00
61014;BME280;46899;47.542;19.082;2023-07-31T05:11:22;100194.78;;;18.65;100.00
61014;BME280;46899;47.542;19.082;2023-07-31T05:14:25;100188.75;;;18.63;100.00
61014;BME280;46899;47.542;19.082;2023-07-31T05:17:28;100193.09;;;18.52;100.00
61014;BME280;46899;47.542;19.082;2023-07-31T05:20:30;100197.44;;;18.53;100.00
61014;BME280;46899;47.542;19.082;2023-07-31T05:23:33;100200.91;;;18.53;100.00
61014;BME280;46899;47.542;19.082;2023-07-31T05:26:35;100200.78;;;18.67;100.00
61014;BME280;46899;47.542;19.082;2023-07-31T05:29:38;100205.81;;;18.70;100.00
61014;BME280;46899;47.542;19.082;2023-07-31T05:32:42;100207.19;;;18.88;100.00
61014;BME280;46899;47.542;19.082;2023-07-31T05:35:45;100209.56;;;18.91;100.00
61014;BME280;46899;47.542;19.082;2023-07-31T05:38:47;100203.66;;;19.00;100.00
61014;BME280;46899;47.542;19.082;2023-07-31T05:41:50;100203.50;;;19.15;95.27
61014;BME280;46899;47.542;19.082;2023-07-31T05:44:52;100211.00;;;19.32;93.10
61014;BME280;46899;47.542;19.082;2023-07-31T05:47:55;100206.94;;;19.51;92.25
61014;BME280;46899;47.542;19.082;2023-07-31T05:50:58;100205.75;;;19.55;87.67
61014;BME280;46899;47.542;19.082;2023-07-31T05:54:00;100208.56;;;19.65;87.63
61014;BME280;46899;47.542;19.082;2023-07-31T05:57:03;100215.59;;;19.88;87.17
61014;BME280;46899;47.542;19.082;2023-07-31T06:00:05;100224.97;;;20.82;80.73
61014;BME280;46899;47.542;19.082;2023-07-31T06:03:09;100225.12;;;20.48;78.86
61014;BME280;46899;47.542;19.082;2023-07-31T06:06:11;100228.53;;;20.15;81.34
61014;BME280;46899;47.542;19.082;2023-07-31T06:09:14;100232.66;;;19.95;83.48
61014;BME280;46899;47.542;19.082;2023-07-31T06:12:16;100227.44;;;20.17;83.02
61014;BME280;46899;47.542;19.082;2023-07-31T06:15:21;100235.19;;;20.31;80.37
61014;BME280;46899;47.542;19.082;2023-07-31T06:18:23;100231.59;;;20.43;79.36
61014;BME280;46899;47.542;19.082;2023-07-31T06:21:26;100237.69;;;20.22;79.78
61014;BME280;46899;47.542;19.082;2023-07-31T06:24:29;100233.44;;;20.08;79.86
61014;BME280;46899;47.542;19.082;2023-07-31T06:27:32;100234.16;;;20.10;79.90
61014;BME280;46899;47.542;19.082;2023-07-31T06:30:34;100239.12;;;20.26;79.31
61014;BME280;46899;47.542;19.082;2023-07-31T06:33:37;100232.91;;;20.38;79.41
61014;BME280;46899;47.542;19.082;2023-07-31T06:36:39;100232.69;;;20.74;78.65
61014;BME280;46899;47.542;19.082;2023-07-31T06:39:42;100229.50;;;21.25;73.16
61014;BME280;46899;47.542;19.082;2023-07-31T06:42:45;100226.75;;;21.69;72.02
61014;BME280;46899;47.542;19.082;2023-07-31T06:45:48;100230.28;;;21.90;70.70
61014;BME280;46899;47.542;19.082;2023-07-31T06:48:53;100222.41;;;22.00;69.47
61014;BME280;46899;47.542;19.082;2023-07-31T06:51:56;100236.66;;;22.29;68.31
61014;BME280;46899;47.542;19.082;2023-07-31T06:58:05;100227.09;;;22.17;69.28
61014;BME280;46899;47.542;19.082;2023-07-31T07:01:07;100232.78;;;21.92;69.50
61014;BME280;46899;47.542;19.082;2023-07-31T07:04:10;100227.44;;;22.03;68.88
61014;BME280;46899;47.542;19.082;2023-07-31T07:07:13;100235.19;;;21.95;68.88
61014;BME280;46899;47.542;19.082;2023-07-31T07:10:16;100239.00;;;22.73;66.79
61014;BME280;46899;47.542;19.082;2023-07-31T07:13:18;100239.84;;;23.13;66.08
61014;BME280;46899;47.542;19.082;2023-07-31T07:16:21;100239.72;;;23.15;63.95
61014;BME280;46899;47.542;19.082;2023-07-31T07:19:24;100247.78;;;23.63;62.01
61014;BME280;46899;47.542;19.082;2023-07-31T07:22:26;100244.97;;;23.93;60.61
61014;BME280;46899;47.542;19.082;2023-07-31T07:25:29;100255.03;;;26.52;52.34
61014;BME280;46899;47.542;19.082;2023-07-31T07:28:32;100258.00;;;28.71;46.47
61014;BME280;46899;47.542;19.082;2023-07-31T07:31:34;100256.47;;;29.32;43.42
61014;BME280;46899;47.542;19.082;2023-07-31T07:34:38;100252.53;;;27.68;46.24
61014;BME280;46899;47.542;19.082;2023-07-31T07:37:41;100261.19;;;29.13;44.47
61014;BME280;46899;47.542;19.082;2023-07-31T07:40:43;100254.66;;;31.97;38.62
61014;BME280;46899;47.542;19.082;2023-07-31T07:43:47;100259.16;;;32.60;35.72
61014;BME280;46899;47.542;19.082;2023-07-31T07:46:49;100259.28;;;34.33;32.19
61014;BME280;46899;47.542;19.082;2023-07-31T07:49:52;100246.50;;;34.92;30.81
61014;BME280;46899;47.542;19.082;2023-07-31T07:52:55;100240.03;;;32.95;32.52
61014;BME280;46899;47.542;19.082;2023-07-31T07:55:57;100230.34;;;30.02;38.01
61014;BME280;46899;47.542;19.082;2023-07-31T07:59:00;100229.72;;;29.77;38.66
61014;BME280;46899;47.542;19.082;2023-07-31T08:02:02;100238.66;;;29.61;38.70
61014;BME280;46899;47.542;19.082;2023-07-31T08:05:05;100235.06;;;29.24;38.33
61014;BME280;46899;47.542;19.082;2023-07-31T08:08:07;100234.75;;;29.72;37.02
61014;BME280;46899;47.542;19.082;2023-07-31T08:11:10;100228.88;;;30.14;35.72
61014;BME280;46899;47.542;19.082;2023-07-31T08:14:13;100242.62;;;32.69;32.54
61014;BME280;46899;47.542;19.082;2023-07-31T08:17:15;100233.06;;;33.74;29.56
61014;BME280;46899;47.542;19.082;2023-07-31T08:20:18;100225.00;;;34.07;28.81
61014;BME280;46899;47.542;19.082;2023-07-31T08:23:21;100234.69;;;36.00;26.20
61014;BME280;46899;47.542;19.082;2023-07-31T08:26:23;100234.25;;;36.53;25.53
61014;BME280;46899;47.542;19.082;2023-07-31T08:29:26;100239.00;;;38.24;22.97
61014;BME280;46899;47.542;19.082;2023-07-31T08:32:30;100239.16;;;39.15;22.08
61014;BME280;46899;47.542;19.082;2023-07-31T08:35:33;100237.03;;;39.17;20.91
61014;BME280;46899;47.542;19.082;2023-07-31T08:38:35;100232.63;;;38.76;21.85
61014;BME280;46899;47.542;19.082;2023-07-31T08:41:38;100240.97;;;40.66;20.32
61014;BME280;46899;47.542;19.082;2023-07-31T08:44:44;100229.53;;;40.14;21.26
61014;BME280;46899;47.542;19.082;2023-07-31T08:47:48;100218.53;;;39.76;21.46
61014;BME280;46899;47.542;19.082;2023-07-31T08:50:53;100229.28;;;38.16;23.01
61014;BME280;46899;47.542;19.082;2023-07-31T08:53:56;100214.44;;;38.30;22.10
61014;BME280;46899;47.542;19.082;2023-07-31T08:56:59;100232.75;;;38.81;21.82
61014;BME280;46899;47.542;19.082;2023-07-31T09:00:04;100217.81;;;38.03;22.01
61014;BME280;46899;47.542;19.082;2023-07-31T09:03:17;100211.81;;;38.12;22.44
61014;BME280;46899;47.542;19.082;2023-07-31T09:06:20;100217.84;;;37.32;23.01
61014;BME280;46899;47.542;19.082;2023-07-31T09:09:25;100210.72;;;35.72;25.25
61014;BME280;46899;47.542;19.082;2023-07-31T09:12:28;100210.97;;;35.27;24.93
61014;BME280;46899;47.542;19.082;2023-07-31T09:15:30;100202.53;;;34.00;27.28
61014;BME280;46899;47.542;19.082;2023-07-31T09:18:55;100211.50;;;34.27;27.14
61014;BME280;46899;47.542;19.082;2023-07-31T09:21:59;100195.69;;;34.04;27.00
61014;BME280;46899;47.542;19.082;2023-07-31T09:25:21;100196.91;;;33.69;28.79
61014;BME280;46899;47.542;19.082;2023-07-31T09:28:24;100202.13;;;31.23;31.68
61014;BME280;46899;47.542;19.082;2023-07-31T09:31:40;100195.31;;;28.41;37.95
61014;BME280;46899;47.542;19.082;2023-07-31T09:34:45;100194.50;;;26.86;39.36
61014;BME280;46899;47.542;19.082;2023-07-31T09:37:49;100190.03;;;26.10;42.23
61014;BME280;46899;47.542;19.082;2023-07-31T09:40:51;100186.84;;;25.80;42.27
61014;BME280;46899;47.542;19.082;2023-07-31T09:43:54;100188.59;;;25.54;43.35
61014;BME280;46899;47.542;19.082;2023-07-31T09:46:57;100186.37;;;25.67;42.02
61014;BME280;46899;47.542;19.082;2023-07-31T09:49:59;100183.91;;;25.21;42.64
61014;BME280;46899;47.542;19.082;2023-07-31T09:53:02;100170.88;;;25.45;43.39
61014;BME280;46899;47.542;19.082;2023-07-31T09:56:05;100168.47;;;25.77;43.01
61014;BME280;46899;47.542;19.082;2023-07-31T09:59:08;100169.03;;;26.32;41.85
61014;BME280;46899;47.542;19.082;2023-07-31T10:02:14;100167.13;;;26.84;42.22
61014;BME280;46899;47.542;19.082;2023-07-31T10:05:19;100172.37;;;27.10;38.98
61014;BME280;46899;47.542;19.082;2023-07-31T10:08:22;100169.13;;;26.82;40.22
61014;BME280;46899;47.542;19.082;2023-07-31T10:11:26;100176.78;;;27.27;40.63
61014;BME280;46899;47.542;19.082;2023-07-31T10:14:29;100177.25;;;26.73;39.94
61014;BME280;46899;47.542;19.082;2023-07-31T10:17:32;100179.37;;;26.61;40.20
61014;BME280;46899;47.542;19.082;2023-07-31T10:20:35;100169.19;;;26.31;40.01
61014;BME280;46899;47.542;19.082;2023-07-31T10:23:39;100168.03;;;25.64;41.23
61014;BME280;46899;47.542;19.082;2023-07-31T10:26:42;100167.75;;;26.11;41.75
61014;BME280;46899;47.542;19.082;2023-07-31T10:29:48;100163.16;;;26.21;41.57
61014;BME280;46899;47.542;19.082;2023-07-31T10:32:51;100175.59;;;25.95;41.66
61014;BME280;46899;47.542;19.082;2023-07-31T10:36:17;100163.03;;;25.87;41.98
61014;BME280;46899;47.542;19.082;2023-07-31T10:39:33;100153.38;;;25.86;42.67
61014;BME280;46899;47.542;19.082;2023-07-31T10:42:37;100153.91;;;25.90;42.72
61014;BME280;46899;47.542;19.082;2023-07-31T10:45:43;100154.47;;;26.01;42.46
61014;BME280;46899;47.542;19.082;2023-07-31T10:48:46;100153.03;;;26.07;42.25
61014;BME280;46899;47.542;19.082;2023-07-31T10:52:03;100148.91;;;26.12;42.68
61014;BME280;46899;47.542;19.082;2023-07-31T10:58:23;100152.59;;;27.61;41.21
61014;BME280;46899;47.542;19.082;2023-07-31T11:01:26;100150.91;;;27.52;39.37
61014;BME280;46899;47.542;19.082;2023-07-31T11:05:05;100144.41;;;27.78;37.76
61014;BME280;46899;47.542;19.082;2023-07-31T11:11:20;100151.56;;;27.38;39.39
61014;BME280;46899;47.542;19.082;2023-07-31T11:14:23;100135.81;;;27.35;38.76
61014;BME280;46899;47.542;19.082;2023-07-31T11:17:25;100142.69;;;27.13;38.92
61014;BME280;46899;47.542;19.082;2023-07-31T11:20:32;100128.31;;;27.06;38.79
61014;BME280;46899;47.542;19.082;2023-07-31T11:23:36;100123.66;;;27.24;39.39
61014;BME280;46899;47.542;19.082;2023-07-31T11:26:47;100133.38;;;27.41;38.09
61014;BME280;46899;47.542;19.082;2023-07-31T11:29:50;100129.72;;;27.50;38.23
61014;BME280;46899;47.542;19.082;2023-07-31T11:32:55;100120.50;;;27.45;38.17
61014;BME280;46899;47.542;19.082;2023-07-31T11:35:57;100122.94;;;27.14;38.53
61014;BME280;46899;47.542;19.082;2023-07-31T11:39:07;100123.38;;;26.85;39.15
61014;BME280;46899;47.542;19.082;2023-07-31T11:42:15;100118.50;;;26.73;38.80
61014;BME280;46899;47.542;19.082;2023-07-31T11:45:18;100119.34;;;26.73;39.37
61014;BME280;46899;47.542;19.082;2023-07-31T11:48:24;100105.63;;;26.68;39.33
61014;BME280;46899;47.542;19.082;2023-07-31T11:51:27;100112.78;;;27.01;39.05
61014;BME280;46899;47.542;19.082;2023-07-31T11:54:31;100116.78;;;27.05;38.76
61014;BME280;46899;47.542;19.082;2023-07-31T11:57:34;100119.66;;;27.44;38.62
61014;BME280;46899;47.542;19.082;2023-07-31T12:00:36;100111.59;;;27.93;37.15
61014;BME280;46899;47.542;19.082;2023-07-31T12:03:39;100110.94;;;28.07;37.31
61014;BME280;46899;47.542;19.082;2023-07-31T12:06:41;100108.78;;;28.02;37.49
61014;BME280;46899;47.542;19.082;2023-07-31T12:09:53;100100.56;;;27.88;38.76
61014;BME280;46899;47.542;19.082;2023-07-31T12:13:03;100097.25;;;27.86;38.12
61014;BME280;46899;47.542;19.082;2023-07-31T12:16:06;100096.62;;;27.59;38.87
61014;BME280;46899;47.542;19.082;2023-07-31T12:19:08;100089.88;;;27.79;38.43
61014;BME280;46899;47.542;19.082;2023-07-31T12:22:12;100085.09;;;27.43;38.46
61014;BME280;46899;47.542;19.082;2023-07-31T12:25:15;100087.25;;;27.47;37.69
61014;BME280;46899;47.542;19.082;2023-07-31T12:28:18;100081.34;;;27.92;37.49
61014;BME280;46899;47.542;19.082;2023-07-31T12:31:25;100077.69;;;27.85;37.35
61014;BME280;46899;47.542;19.082;2023-07-31T12:34:29;100076.31;;;27.89;37.64
61014;BME280;46899;47.542;19.082;2023-07-31T12:37:32;100080.69;;;27.82;38.04
61014;BME280;46899;47.542;19.082;2023-07-31T12:40:37;100076.97;;;27.91;37.84
61014;BME280;46899;47.542;19.082;2023-07-31T12:43:40;100080.22;;;27.54;38.12
61014;BME280;46899;47.542;19.082;2023-07-31T12:46:43;100065.81;;;27.79;38.14
61014;BME280;46899;47.542;19.082;2023-07-31T12:49:46;100061.47;;;27.78;38.29
61014;BME280;46899;47.542;19.082;2023-07-31T12:52:48;100054.37;;;27.39;39.44
61014;BME280;46899;47.542;19.082;2023-07-31T12:55:51;100057.50;;;27.58;38.49
61014;BME280;46899;47.542;19.082;2023-07-31T12:58:54;100057.81;;;27.71;38.38
61014;BME280;46899;47.542;19.082;2023-07-31T13:01:56;100051.97;;;27.36;38.51
61014;BME280;46899;47.542;19.082;2023-07-31T13:04:59;100055.16;;;27.15;38.48
61014;BME280;46899;47.542;19.082;2023-07-31T13:08:01;100045.16;;;27.01;39.02
61014;BME280;46899;47.542;19.082;2023-07-31T13:11:04;100043.47;;;27.08;38.68
61014;BME280;46899;47.542;19.082;2023-07-31T13:14:06;100039.28;;;27.13;38.19
61014;BME280;46899;47.542;19.082;2023-07-31T13:17:09;100039.75;;;27.73;37.67
61014;BME280;46899;47.542;19.082;2023-07-31T13:20:12;100044.25;;;27.81;36.72
61014;BME280;46899;47.542;19.082;2023-07-31T13:23:14;100035.53;;;27.87;37.16
61014;BME280;46899;47.542;19.082;2023-07-31T13:26:17;100030.25;;;27.71;37.84
61014;BME280;46899;47.542;19.082;2023-07-31T13:29:19;100037.63;;;27.45;38.18
61014;BME280;46899;47.542;19.082;2023-07-31T13:32:23;100023.75;;;27.09;39.10
61014;BME280;46899;47.542;19.082;2023-07-31T13:35:26;100022.75;;;27.34;38.37
61014;BME280;46899;47.542;19.082;2023-07-31T13:38:28;100025.91;;;27.54;38.57
61014;BME280;46899;47.542;19.082;2023-07-31T13:41:31;100019.41;;;27.32;38.34
61014;BME280;46899;47.542;19.082;2023-07-31T13:44:40;100025.28;;;27.20;38.26
61014;BME280;46899;47.542;19.082;2023-07-31T13:47:43;100023.91;;;26.99;38.96
61014;BME280;46899;47.542;19.082;2023-07-31T13:50:45;100015.59;;;27.02;38.41
61014;BME280;46899;47.542;19.082;2023-07-31T13:53:48;100019.44;;;26.92;38.77
61014;BME280;46899;47.542;19.082;2023-07-31T13:56:51;100014.41;;;26.81;38.59
61014;BME280;46899;47.542;19.082;2023-07-31T13:59:54;100002.44;;;26.43;39.69
61014;BME280;46899;47.542;19.082;2023-07-31T14:02:56;100004.34;;;26.59;39.46
61014;BME280;46899;47.542;19.082;2023-07-31T14:05:59;100003.63;;;26.48;39.33
61014;BME280;46899;47.542;19.082;2023-07-31T14:09:02;100001.81;;;26.57;39.24
61014;BME280;46899;47.542;19.082;2023-07-31T14:12:05;100003.19;;;26.61;39.10
61014;BME280;46899;47.542;19.082;2023-07-31T14:15:07;99996.38;;;26.75;39.17
61014;BME280;46899;47.542;19.082;2023-07-31T14:18:10;99996.53;;;26.73;39.66
61014;BME280;46899;47.542;19.082;2023-07-31T14:21:13;99996.31;;;26.67;38.79
61014;BME280;46899;47.542;19.082;2023-07-31T14:24:18;100001.81;;;26.57;39.51
61014;BME280;46899;47.542;19.082;2023-07-31T14:27:21;99988.63;;;26.39;39.10
61014;BME280;46899;47.542;19.082;2023-07-31T14:30:24;99987.94;;;26.37;40.00
61014;BME280;46899;47.542;19.082;2023-07-31T14:33:27;99987.47;;;26.58;41.00
61014;BME280;46899;47.542;19.082;2023-07-31T14:36:30;99988.78;;;26.46;39.66
61014;BME280;46899;47.542;19.082;2023-07-31T14:39:32;99984.69;;;26.76;39.37
61014;BME280;46899;47.542;19.082;2023-07-31T14:42:35;99984.69;;;26.76;39.32
61014;BME280;46899;47.542;19.082;2023-07-31T14:45:37;99976.53;;;26.93;38.85
61014;BME280;46899;47.542;19.082;2023-07-31T14:48:40;99981.16;;;27.48;39.11
61014;BME280;46899;47.542;19.082;2023-07-31T14:51:42;99974.06;;;27.79;38.42
61014;BME280;46899;47.542;19.082;2023-07-31T14:54:45;99981.97;;;27.64;37.66
61014;BME280;46899;47.542;19.082;2023-07-31T14:57:47;99983.84;;;27.40;37.82
61014;BME280;46899;47.542;19.082;2023-07-31T15:00:50;99976.84;;;27.06;38.19
61014;BME280;46899;47.542;19.082;2023-07-31T15:03:52;99981.53;;;26.88;37.89
61014;BME280;46899;47.542;19.082;2023-07-31T15:06:55;99977.00;;;26.73;38.87
61014;BME280;46899;47.542;19.082;2023-07-31T15:09:57;99970.16;;;26.78;39.10
61014;BME280;46899;47.542;19.082;2023-07-31T15:13:00;99983.53;;;26.94;38.54
61014;BME280;46899;47.542;19.082;2023-07-31T15:16:03;99975.84;;;26.99;38.02
61014;BME280;46899;47.542;19.082;2023-07-31T15:19:06;99970.84;;;27.12;37.60
61014;BME280;46899;47.542;19.082;2023-07-31T15:22:08;99965.97;;;27.16;38.10
61014;BME280;46899;47.542;19.082;2023-07-31T15:25:11;99971.19;;;26.93;37.94
61014;BME280;46899;47.542;19.082;2023-07-31T15:28:13;99964.97;;;26.61;38.43
61014;BME280;46899;47.542;19.082;2023-07-31T15:31:16;99960.91;;;26.40;38.93
61014;BME280;46899;47.542;19.082;2023-07-31T15:34:18;99954.72;;;26.32;39.19
61014;BME280;46899;47.542;19.082;2023-07-31T15:37:21;99952.38;;;26.21;39.57
61014;BME280;46899;47.542;19.082;2023-07-31T15:40:24;99945.66;;;26.09;39.93
61014;BME280;46899;47.542;19.082;2023-07-31T15:43:26;99941.47;;;26.06;39.67
61014;BME280;46899;47.542;19.082;2023-07-31T15:46:29;99945.53;;;26.26;38.94
61014;BME280;46899;47.542;19.082;2023-07-31T15:49:32;99938.56;;;26.25;38.65
61014;BME280;46899;47.542;19.082;2023-07-31T15:52:34;99931.38;;;26.26;38.93
61014;BME280;46899;47.542;19.082;2023-07-31T15:55:37;99935.00;;;26.17;39.05
61014;BME280;46899;47.542;19.082;2023-07-31T15:58:40;99936.69;;;26.18;39.71
61014;BME280;46899;47.542;19.082;2023-07-31T16:01:42;99932.94;;;26.03;38.86